createdAt,value
2023-01-18T00:02:08.339Z,23.88
2023-01-18T00:04:34.912Z,23.35
2023-01-18T00:07:01.524Z,23.05
2023-01-18T00:09:28.151Z,24.27
2023-01-18T00:11:54.735Z,24.70
2023-01-18T00:14:21.376Z,23.80
2023-01-18T00:16:47.964Z,23.50
2023-01-18T00:19:14.643Z,23.67
2023-01-18T00:21:41.217Z,23.27
2023-01-18T00:24:11.384Z,23.17
2023-01-18T00:26:38.170Z,23.90
2023-01-18T00:29:05.180Z,24.58
2023-01-18T00:31:32.317Z,23.23
2023-01-18T00:33:58.959Z,23.10
2023-01-18T00:36:25.529Z,22.83
2023-01-18T00:38:52.684Z,23.85
2023-01-18T00:41:20.623Z,23.85
2023-01-18T00:43:47.391Z,25.83
2023-01-18T00:46:33.741Z,25.95
2023-01-18T00:49:00.274Z,25.80
2023-01-18T00:51:26.889Z,24.30
2023-01-18T00:53:53.527Z,25.67
2023-01-18T00:56:22.387Z,24.88
2023-01-18T00:58:49.418Z,23.98
2023-01-18T01:01:16.583Z,24.20
2023-01-18T01:04:01.745Z,24.92
2023-01-18T01:09:25.186Z,24.73
2023-01-18T01:12:11.710Z,23.73
2023-01-18T01:15:00.163Z,23.20
2023-01-18T01:17:48.030Z,24.13
2023-01-18T01:20:33.849Z,23.88
2023-01-18T01:23:39.233Z,24.35
2023-01-18T01:26:16.382Z,23.83
2023-01-18T01:28:51.194Z,25.20
2023-01-18T01:31:19.214Z,25.58
2023-01-18T01:33:49.140Z,24.90
2023-01-18T01:36:18.911Z,25.38
2023-01-18T01:38:46.043Z,24.40
2023-01-18T01:41:21.396Z,24.02
2023-01-18T01:43:51.170Z,23.63
2023-01-18T01:46:50.110Z,23.67
2023-01-18T01:49:29.921Z,23.35
2023-01-18T01:52:05.160Z,24.42
2023-01-18T01:54:54.803Z,28.80
2023-01-18T01:57:35.335Z,29.77
2023-01-18T02:00:20.449Z,28.10
2023-01-18T02:05:18.100Z,34.75
2023-01-18T02:07:44.951Z,49.53
2023-01-18T02:10:11.977Z,55.08
2023-01-18T02:12:45.036Z,39.60
2023-01-18T02:15:11.873Z,66.75
2023-01-18T02:18:11.240Z,83.57
2023-01-18T02:21:02.527Z,47.17
2023-01-18T02:23:39.579Z,56.13
2023-01-18T02:26:45.072Z,94.25
2023-01-18T02:29:56.375Z,81.50
2023-01-18T02:32:27.850Z,107.07
2023-01-18T02:35:07.236Z,90.95
2023-01-18T02:38:01.240Z,86.03
2023-01-18T02:41:00.283Z,91.50
2023-01-18T02:43:46.174Z,87.32
2023-01-18T02:46:33.843Z,70.22
2023-01-18T02:49:04.796Z,90.75
2023-01-18T02:51:31.467Z,72.78
2023-01-18T02:53:58.808Z,80.60
2023-01-18T02:56:49.250Z,68.68
2023-01-18T02:59:24.587Z,78.25
2023-01-18T03:01:57.483Z,75.38
2023-01-18T03:04:44.978Z,71.10
2023-01-18T03:07:19.400Z,64.93
2023-01-18T03:09:46.702Z,61.22
2023-01-18T03:12:47.425Z,49.85
2023-01-18T03:15:31.099Z,51.03
2023-01-18T03:18:03.030Z,57.45
2023-01-18T03:20:35.789Z,53.22
2023-01-18T03:23:39.805Z,58.15
2023-01-18T03:26:19.537Z,55.85
2023-01-18T03:29:11.204Z,50.25
2023-01-18T03:32:04.655Z,44.00
2023-01-18T03:34:44.164Z,41.30
2023-01-18T03:37:17.995Z,41.80
2023-01-18T03:39:49.651Z,36.70
2023-01-18T03:42:24.034Z,44.05
2023-01-18T03:45:05.730Z,42.33
2023-01-18T03:47:32.753Z,47.40
2023-01-18T03:49:59.339Z,42.28
2023-01-18T03:52:37.685Z,41.30
2023-01-18T03:55:20.946Z,41.63
2023-01-18T03:57:55.872Z,39.20
2023-01-18T04:00:22.486Z,37.05
2023-01-18T04:02:50.219Z,37.83
2023-01-18T04:05:17.365Z,43.17
2023-01-18T04:07:44.601Z,37.08
2023-01-18T04:10:11.737Z,38.67
2023-01-18T04:12:38.361Z,38.65
2023-01-18T04:15:05.518Z,35.20
2023-01-18T04:17:32.112Z,37.15
2023-01-18T04:19:58.794Z,36.75
2023-01-18T04:22:25.578Z,37.10
2023-01-18T04:24:52.351Z,32.20
2023-01-18T04:27:18.991Z,33.30
2023-01-18T04:29:45.591Z,36.85
2023-01-18T04:32:12.174Z,36.70
2023-01-18T04:34:38.704Z,38.40
2023-01-18T04:37:05.270Z,49.88
2023-01-18T04:39:31.812Z,46.60
2023-01-18T04:41:59.413Z,41.15
2023-01-18T04:44:26.017Z,42.10
2023-01-18T04:46:52.826Z,38.67
2023-01-18T04:49:19.537Z,37.92
2023-01-18T04:51:46.820Z,36.88
2023-01-18T04:54:16.744Z,39.30
2023-01-18T04:56:43.359Z,37.47
2023-01-18T04:59:14.569Z,39.50
2023-01-18T05:01:41.151Z,47.55
2023-01-18T05:04:07.735Z,45.83
2023-01-18T05:06:34.302Z,48.35
2023-01-18T05:09:00.900Z,54.78
2023-01-18T05:11:27.476Z,57.45
2023-01-18T05:13:54.033Z,75.70
2023-01-18T05:16:23.072Z,70.38
2023-01-18T05:18:50.041Z,60.63
2023-01-18T05:21:16.699Z,65.07
2023-01-18T05:23:43.336Z,51.10
2023-01-18T05:26:16.285Z,63.58
2023-01-18T05:28:43.381Z,66.18
2023-01-18T05:31:10.015Z,61.05
2023-01-18T05:33:36.879Z,56.20
2023-01-18T05:36:04.107Z,83.95
2023-01-18T05:38:31.024Z,59.70
2023-01-18T05:40:57.872Z,61.92
2023-01-18T05:43:26.572Z,64.43
2023-01-18T05:45:53.434Z,84.30
2023-01-18T05:48:20.622Z,67.57
2023-01-18T05:50:48.797Z,59.85
2023-01-18T05:53:21.126Z,65.32
2023-01-18T05:55:58.622Z,59.95
2023-01-18T05:58:26.608Z,39.53
2023-01-18T06:00:53.831Z,43.72
2023-01-18T06:03:21.159Z,44.22
2023-01-18T06:05:48.438Z,37.78
2023-01-18T06:08:15.921Z,38.78
2023-01-18T06:10:42.550Z,35.40
2023-01-18T06:13:09.943Z,35.13
2023-01-18T06:15:36.619Z,30.40
2023-01-18T06:18:03.281Z,31.92
2023-01-18T06:20:30.522Z,33.17
2023-01-18T06:22:58.600Z,32.78
2023-01-18T06:25:26.759Z,33.35
2023-01-18T06:27:53.352Z,32.47
2023-01-18T06:30:20.419Z,30.80
2023-01-18T06:32:49.951Z,28.23
2023-01-18T06:35:16.582Z,26.55
2023-01-18T06:37:45.350Z,26.30
2023-01-18T06:40:12.477Z,26.33
2023-01-18T06:42:39.091Z,24.75
2023-01-18T06:45:06.131Z,26.23
2023-01-18T06:47:32.720Z,27.17
2023-01-18T06:49:59.272Z,26.70
2023-01-18T06:52:25.875Z,33.85
2023-01-18T06:54:52.416Z,39.55
2023-01-18T06:57:19.019Z,42.95
2023-01-18T06:59:45.531Z,40.20
2023-01-18T07:02:16.622Z,33.72
2023-01-18T07:04:45.378Z,47.67
2023-01-18T07:07:13.201Z,41.50
2023-01-18T07:09:39.772Z,43.95
2023-01-18T07:12:06.362Z,44.15
2023-01-18T07:14:32.921Z,36.63
2023-01-18T07:16:59.535Z,34.75
2023-01-18T07:19:26.165Z,34.38
2023-01-18T07:21:53.830Z,33.97
2023-01-18T07:24:21.239Z,32.83
2023-01-18T07:26:48.342Z,31.63
2023-01-18T07:29:15.046Z,31.10
2023-01-18T07:31:41.719Z,29.42
2023-01-18T07:34:09.853Z,27.08
2023-01-18T07:36:38.763Z,28.15
2023-01-18T07:39:06.627Z,26.08
2023-01-18T07:41:33.226Z,26.45
2023-01-18T07:44:00.443Z,26.45
2023-01-18T07:46:27.617Z,24.95
2023-01-18T07:48:54.298Z,25.95
2023-01-18T07:51:24.422Z,26.38
2023-01-18T07:53:55.244Z,27.90
2023-01-18T07:56:22.945Z,30.13
2023-01-18T07:58:49.537Z,32.10
2023-01-18T08:01:19.136Z,35.30
2023-01-18T08:03:48.020Z,38.17
2023-01-18T08:06:18.614Z,36.88
2023-01-18T08:08:45.460Z,35.70
2023-01-18T08:11:12.573Z,32.38
2023-01-18T08:13:39.211Z,33.83
2023-01-18T08:16:07.692Z,38.95
2023-01-18T08:18:34.899Z,49.15
2023-01-18T08:21:01.471Z,48.95
2023-01-18T08:23:28.172Z,53.35
2023-01-18T08:25:55.506Z,55.75
2023-01-18T08:28:22.152Z,60.15
2023-01-18T08:30:49.256Z,63.55
2023-01-18T08:33:15.931Z,57.30
2023-01-18T08:35:47.519Z,29.73
2023-01-18T08:38:15.853Z,52.00
2023-01-18T08:40:43.355Z,26.52
2023-01-18T08:43:11.802Z,26.85
2023-01-18T08:45:38.593Z,32.85
2023-01-18T08:48:07.875Z,47.38
2023-01-18T08:50:35.828Z,76.30
2023-01-18T08:53:04.066Z,72.47
2023-01-18T08:55:30.801Z,64.93
2023-01-18T08:57:58.345Z,46.75
2023-01-18T09:00:28.508Z,48.95
2023-01-18T09:02:55.345Z,59.15
2023-01-18T09:05:22.655Z,61.90
2023-01-18T09:07:50.920Z,56.03
2023-01-18T09:10:17.805Z,43.70
2023-01-18T09:12:44.412Z,58.28
2023-01-18T09:15:11.091Z,55.38
2023-01-18T09:17:37.760Z,56.53
2023-01-18T09:20:09.640Z,38.63
2023-01-18T09:22:36.861Z,51.33
2023-01-18T09:25:04.669Z,58.90
2023-01-18T09:27:31.706Z,60.28
2023-01-18T09:29:58.410Z,60.47
2023-01-18T09:32:25.564Z,56.25
2023-01-18T09:34:53.120Z,51.08
2023-01-18T09:37:19.723Z,40.67
2023-01-18T09:39:52.319Z,36.75
2023-01-18T09:42:25.372Z,35.38
2023-01-18T09:44:55.387Z,36.17
2023-01-18T09:47:34.441Z,34.90
2023-01-18T09:50:21.505Z,34.42
2023-01-18T09:53:08.875Z,33.70
2023-01-18T09:55:54.284Z,32.17
2023-01-18T09:58:45.619Z,29.13
2023-01-18T10:01:18.561Z,28.15
2023-01-18T10:03:50.586Z,25.40
2023-01-18T10:06:28.897Z,27.48
2023-01-18T10:09:23.625Z,31.80
2023-01-18T10:11:59.644Z,33.58
2023-01-18T10:14:51.233Z,36.60
2023-01-18T10:17:25.937Z,82.15
2023-01-18T10:22:19.708Z,43.65
2023-01-18T10:24:55.304Z,47.80
2023-01-18T10:27:39.980Z,44.00
2023-01-18T10:30:25.820Z,44.53
2023-01-18T10:32:57.235Z,41.25
2023-01-18T10:35:27.899Z,47.95
2023-01-18T10:38:02.727Z,38.90
2023-01-18T10:40:29.334Z,69.10
2023-01-18T10:43:04.352Z,73.65
2023-01-18T10:45:35.068Z,77.47
2023-01-18T10:48:31.009Z,35.05
2023-01-18T10:51:05.878Z,30.52
2023-01-18T10:53:39.502Z,34.88
2023-01-18T10:56:24.263Z,29.17
2023-01-18T10:58:50.857Z,29.27
2023-01-18T11:01:22.522Z,33.58
2023-01-18T11:03:54.448Z,26.73
2023-01-18T11:06:22.297Z,22.10
2023-01-18T11:08:50.005Z,22.13
2023-01-18T11:11:49.072Z,22.58
2023-01-18T11:14:32.072Z,23.67
2023-01-18T11:17:04.019Z,22.70
2023-01-18T11:19:30.683Z,23.08
2023-01-18T11:21:57.420Z,24.08
2023-01-18T11:24:31.891Z,22.65
2023-01-18T11:27:03.997Z,21.23
2023-01-18T11:29:36.460Z,23.15
2023-01-18T11:32:13.368Z,25.60
2023-01-18T11:34:43.714Z,23.60
2023-01-18T11:37:30.610Z,25.30
2023-01-18T11:39:57.206Z,25.48
2023-01-18T11:42:35.123Z,27.55
2023-01-18T11:45:24.963Z,29.50
2023-01-18T11:48:13.760Z,26.77
2023-01-18T11:50:53.974Z,23.48
2023-01-18T11:53:43.663Z,23.75
2023-01-18T11:56:19.381Z,22.60
2023-01-18T11:58:46.109Z,22.98
2023-01-18T12:01:43.404Z,23.98
2023-01-18T12:04:47.363Z,26.27
2023-01-18T12:07:32.766Z,24.33
2023-01-18T12:10:01.690Z,22.13
2023-01-18T12:12:55.759Z,23.50
2023-01-18T12:15:46.580Z,22.95
2023-01-18T12:18:30.378Z,22.98
2023-01-18T12:21:18.941Z,22.00
2023-01-18T12:24:11.743Z,24.58
2023-01-18T12:26:53.766Z,21.88
2023-01-18T12:30:17.476Z,23.13
2023-01-18T12:32:55.515Z,26.00
2023-01-18T12:35:39.735Z,29.88
2023-01-18T12:38:22.931Z,28.08
2023-01-18T12:41:20.909Z,27.85
2023-01-18T12:43:57.629Z,27.35
2023-01-18T12:46:51.879Z,27.65
2023-01-18T12:49:21.492Z,38.38
2023-01-18T12:51:54.239Z,37.78
2023-01-18T12:54:46.347Z,37.30
2023-01-18T12:57:16.451Z,32.58
2023-01-18T12:59:54.224Z,27.90
2023-01-18T13:02:36.041Z,27.50
2023-01-18T13:05:37.830Z,25.42
2023-01-18T13:08:15.500Z,24.52
2023-01-18T13:10:43.112Z,22.02
2023-01-18T13:13:17.514Z,22.98
2023-01-18T13:15:48.045Z,23.17
2023-01-18T13:18:43.006Z,22.77
2023-01-18T13:21:26.244Z,24.05
2023-01-18T13:24:23.321Z,24.60
2023-01-18T13:26:50.063Z,25.23
2023-01-18T13:29:29.897Z,29.30
2023-01-18T13:31:57.379Z,32.47
2023-01-18T13:34:44.898Z,38.63
2023-01-18T13:37:45.385Z,41.88
2023-01-18T13:40:25.453Z,44.25
2023-01-18T13:42:52.239Z,46.90
2023-01-18T13:45:22.540Z,48.00
2023-01-18T13:48:05.261Z,49.53
2023-01-18T13:50:31.822Z,43.45
2023-01-18T13:53:13.811Z,42.63
2023-01-18T13:55:46.285Z,38.70
2023-01-18T13:58:24.912Z,34.22
2023-01-18T14:00:51.858Z,30.42
2023-01-18T14:03:27.657Z,30.27
2023-01-18T14:05:57.125Z,34.17
2023-01-18T14:08:32.574Z,30.20
2023-01-18T14:11:02.727Z,29.45
2023-01-18T14:13:44.541Z,29.83
2023-01-18T14:16:27.166Z,27.95
2023-01-18T14:18:59.046Z,28.67
2023-01-18T14:21:25.700Z,28.63
2023-01-18T14:24:06.164Z,26.98
2023-01-18T14:26:36.071Z,25.75
2023-01-18T14:29:05.418Z,25.38
2023-01-18T14:31:36.054Z,26.35
2023-01-18T14:34:25.160Z,26.30
2023-01-18T14:36:52.707Z,28.38
2023-01-18T14:39:21.587Z,30.05
2023-01-18T14:41:53.159Z,30.35
2023-01-18T14:44:37.479Z,30.80
2023-01-18T14:47:23.829Z,31.10
2023-01-18T14:49:53.580Z,30.70
2023-01-18T14:52:20.803Z,28.75
2023-01-18T14:54:52.173Z,27.60
2023-01-18T14:57:19.238Z,26.90
2023-01-18T14:59:55.191Z,26.27
2023-01-18T15:02:29.263Z,24.77
2023-01-18T15:05:17.041Z,24.75
2023-01-18T15:07:46.619Z,23.05
2023-01-18T15:10:19.163Z,22.98
2023-01-18T15:12:52.431Z,22.23
2023-01-18T15:15:27.771Z,22.67
2023-01-18T15:18:06.430Z,22.35
2023-01-18T15:20:33.914Z,23.95
2023-01-18T15:23:00.972Z,26.75
2023-01-18T15:25:31.488Z,28.30
2023-01-18T15:28:11.725Z,32.03
2023-01-18T15:30:53.517Z,33.58
2023-01-18T15:33:22.182Z,36.40
2023-01-18T15:35:54.657Z,43.55
2023-01-18T15:38:21.653Z,41.78
2023-01-18T15:41:17.500Z,44.83
2023-01-18T15:43:46.146Z,54.40
2023-01-18T15:46:15.882Z,64.53
2023-01-18T15:48:47.491Z,71.25
2023-01-18T15:51:14.424Z,75.30
2023-01-18T15:53:52.536Z,70.90
2023-01-18T15:56:33.312Z,67.38
2023-01-18T15:59:02.418Z,61.53
2023-01-18T16:01:33.943Z,48.22
2023-01-18T16:04:04.132Z,45.03
2023-01-18T16:06:40.293Z,32.25
2023-01-18T16:09:12.258Z,30.00
2023-01-18T16:11:43.033Z,28.90
2023-01-18T16:14:27.876Z,27.73
2023-01-18T16:17:02.713Z,30.63
2023-01-18T16:19:46.900Z,26.83
2023-01-18T16:22:21.762Z,28.57
2023-01-18T16:25:01.356Z,30.48
2023-01-18T16:27:30.747Z,29.20
2023-01-18T16:29:59.881Z,31.00
2023-01-18T16:32:29.536Z,32.50
2023-01-18T16:35:21.161Z,30.33
2023-01-18T16:37:48.968Z,32.17
2023-01-18T16:40:21.121Z,32.80
2023-01-18T16:43:25.555Z,35.60
2023-01-18T16:45:54.820Z,38.65
2023-01-18T16:48:23.995Z,44.92
2023-01-18T16:50:51.864Z,46.25
2023-01-18T16:53:19.201Z,49.40
2023-01-18T16:55:48.183Z,46.50
2023-01-18T16:58:16.580Z,48.42
2023-01-18T17:01:11.036Z,47.38
2023-01-18T17:03:37.667Z,48.50
2023-01-18T17:06:04.359Z,50.40
2023-01-18T17:08:30.956Z,50.63
2023-01-18T17:10:57.699Z,50.55
2023-01-18T17:13:24.369Z,52.80
2023-01-18T17:15:52.918Z,49.65
2023-01-18T17:18:23.979Z,51.22
2023-01-18T17:20:50.589Z,51.33
2023-01-18T17:23:17.908Z,52.28
2023-01-18T17:25:45.096Z,56.03
2023-01-18T17:28:17.882Z,55.90
2023-01-18T17:30:46.915Z,57.03
2023-01-18T17:33:20.685Z,58.38
2023-01-18T17:35:52.408Z,57.07
2023-01-18T17:38:25.105Z,58.03
2023-01-18T17:40:52.450Z,61.33
2023-01-18T17:43:32.240Z,65.93
2023-01-18T17:46:04.236Z,63.30
2023-01-18T17:48:31.083Z,68.80
2023-01-18T17:50:58.593Z,74.53
2023-01-18T17:53:26.759Z,72.80
2023-01-18T17:55:53.410Z,78.45
2023-01-18T17:58:19.947Z,80.65
2023-01-18T18:00:46.667Z,84.78
2023-01-18T18:03:13.450Z,86.63
2023-01-18T18:05:40.325Z,91.68
2023-01-18T18:08:07.754Z,90.45
2023-01-18T18:10:34.351Z,90.80
2023-01-18T18:13:01.540Z,94.18
2023-01-18T18:15:28.393Z,93.32
2023-01-18T18:17:55.021Z,95.75
2023-01-18T18:20:22.733Z,97.88
2023-01-18T18:22:49.648Z,98.63
2023-01-18T18:25:16.330Z,99.30
2023-01-18T18:27:47.176Z,100.35
2023-01-18T18:30:15.121Z,101.03
2023-01-18T18:32:41.748Z,105.10
2023-01-18T18:35:23.671Z,103.43
2023-01-18T18:37:51.003Z,100.28
2023-01-18T18:40:17.895Z,104.45
2023-01-18T18:42:49.950Z,107.05
2023-01-18T18:45:27.053Z,105.95
2023-01-18T18:47:53.694Z,109.97
2023-01-18T18:50:20.368Z,108.13
2023-01-18T18:52:46.927Z,107.97
2023-01-18T18:55:13.831Z,106.75
2023-01-18T18:57:40.502Z,106.32
2023-01-18T19:00:07.855Z,104.43
2023-01-18T19:02:35.162Z,103.75
2023-01-18T19:05:02.081Z,104.93
2023-01-18T19:07:28.989Z,105.60
2023-01-18T19:09:55.708Z,109.70
2023-01-18T19:12:22.385Z,109.05
2023-01-18T19:14:48.961Z,104.97
2023-01-18T19:17:25.236Z,106.38
2023-01-18T19:19:56.256Z,102.28
2023-01-18T19:22:23.392Z,103.95
2023-01-18T19:24:49.909Z,106.20
2023-01-18T19:27:16.610Z,100.57
2023-01-18T19:29:43.366Z,101.22
2023-01-18T19:32:10.190Z,102.57
2023-01-18T19:34:38.535Z,100.88
2023-01-18T19:37:05.418Z,101.38
2023-01-18T19:39:34.819Z,101.55
2023-01-18T19:42:02.040Z,98.65
2023-01-18T19:44:28.857Z,98.88
2023-01-18T19:46:56.931Z,96.93
2023-01-18T19:49:26.340Z,95.65
2023-01-18T19:51:54.680Z,93.40
2023-01-18T19:54:21.792Z,93.57
2023-01-18T19:56:48.469Z,92.03
2023-01-18T19:59:15.147Z,100.25
2023-01-18T20:01:42.059Z,92.18
2023-01-18T20:04:09.668Z,91.88
2023-01-18T20:06:39.783Z,88.47
2023-01-18T20:09:19.016Z,85.10
2023-01-18T20:11:46.806Z,83.32
2023-01-18T20:14:13.420Z,81.05
2023-01-18T20:16:40.610Z,84.40
2023-01-18T20:19:07.407Z,86.22
2023-01-18T20:21:33.989Z,85.00
2023-01-18T20:24:01.019Z,84.65
2023-01-18T20:26:36.774Z,82.05
2023-01-18T20:29:07.340Z,82.25
2023-01-18T20:31:39.000Z,81.88
2023-01-18T20:34:06.256Z,79.68
2023-01-18T20:36:35.021Z,79.57
2023-01-18T20:39:02.317Z,82.65
2023-01-18T20:41:28.918Z,80.50
2023-01-18T20:43:55.552Z,77.65
2023-01-18T20:46:22.354Z,77.97
2023-01-18T20:48:49.606Z,77.03
2023-01-18T20:51:17.946Z,79.00
2023-01-18T20:53:44.799Z,74.70
2023-01-18T20:56:27.789Z,71.95
2023-01-18T20:58:55.904Z,70.87
2023-01-18T21:01:22.729Z,68.68
2023-01-18T21:03:54.588Z,70.88
2023-01-18T21:06:21.302Z,70.90
2023-01-18T21:08:47.895Z,70.72
2023-01-18T21:11:18.732Z,68.82
2023-01-18T21:13:45.311Z,67.32
2023-01-18T21:16:12.589Z,68.80
2023-01-18T21:18:39.455Z,69.88
2023-01-18T21:21:06.526Z,69.93
2023-01-18T21:23:39.551Z,67.93
2023-01-18T21:26:11.769Z,66.15
2023-01-18T21:28:38.387Z,68.78
2023-01-18T21:31:05.763Z,69.68
2023-01-18T21:33:33.162Z,69.60
2023-01-18T21:36:05.264Z,66.65
2023-01-18T21:38:32.362Z,67.90
2023-01-18T21:41:18.917Z,65.35
2023-01-18T21:44:03.838Z,64.22
2023-01-18T21:46:30.422Z,64.40
2023-01-18T21:48:59.178Z,60.38
2023-01-18T21:51:44.030Z,59.22
2023-01-18T21:54:16.753Z,60.60
2023-01-18T21:56:47.264Z,58.42
2023-01-18T21:59:14.543Z,57.25
2023-01-18T22:01:47.118Z,60.13
2023-01-18T22:04:34.025Z,58.67
2023-01-18T22:07:01.269Z,57.38
2023-01-18T22:09:29.588Z,59.22
2023-01-18T22:11:57.352Z,59.70
2023-01-18T22:14:25.650Z,61.65
2023-01-18T22:16:52.443Z,60.05
2023-01-18T22:19:19.205Z,60.97
2023-01-18T22:21:46.080Z,58.38
2023-01-18T22:24:13.595Z,59.10
2023-01-18T22:26:40.909Z,60.33
2023-01-18T22:29:07.645Z,60.15
2023-01-18T22:31:35.052Z,59.58
2023-01-18T22:34:04.465Z,60.17
2023-01-18T22:36:32.240Z,59.70
2023-01-18T22:38:58.811Z,56.50
2023-01-18T22:41:29.325Z,58.47
2023-01-18T22:43:56.512Z,57.03
2023-01-18T22:46:24.058Z,57.97
2023-01-18T22:48:51.053Z,58.78
2023-01-18T22:51:20.452Z,55.80
2023-01-18T22:53:47.928Z,56.60
2023-01-18T22:56:17.655Z,55.25
2023-01-18T22:58:44.655Z,55.25
2023-01-18T23:01:26.093Z,53.78
2023-01-18T23:03:56.116Z,52.50
2023-01-18T23:06:22.801Z,53.25
2023-01-18T23:08:49.940Z,51.50
2023-01-18T23:11:20.020Z,53.72
2023-01-18T23:14:09.551Z,52.42
2023-01-18T23:16:54.901Z,50.58
2023-01-18T23:19:23.835Z,52.15
2023-01-18T23:21:50.775Z,52.05
2023-01-18T23:24:17.743Z,50.53
2023-01-18T23:26:44.790Z,50.33
2023-01-18T23:29:11.362Z,48.75
2023-01-18T23:31:37.911Z,50.08
2023-01-18T23:34:04.509Z,50.55
2023-01-18T23:36:31.249Z,49.17
2023-01-18T23:39:16.500Z,50.92
2023-01-18T23:42:01.859Z,49.42
2023-01-18T23:44:47.155Z,48.63
2023-01-18T23:47:32.583Z,48.63
2023-01-18T23:50:17.675Z,47.33
2023-01-18T23:55:29.092Z,42.67
2023-01-18T23:57:55.665Z,43.13
